createdAt,value
2023-05-06T00:01:21.065Z,94651.53
2023-05-06T00:03:48.224Z,94643.22
2023-05-06T00:06:15.383Z,94648.69
2023-05-06T00:08:42.319Z,94641.66
2023-05-06T00:11:09.281Z,94644.22
2023-05-06T00:13:37.790Z,94644.75
2023-05-06T00:16:04.950Z,94633.19
2023-05-06T00:18:31.810Z,94628.09
2023-05-06T00:20:58.687Z,94638.88
2023-05-06T00:23:25.724Z,94635.03
2023-05-06T00:25:54.935Z,94639.13
2023-05-06T00:28:22.049Z,94627.06
2023-05-06T00:30:49.149Z,94641.50
2023-05-06T00:33:16.120Z,94637.72
2023-05-06T00:35:42.990Z,94636.56
2023-05-06T00:38:13.567Z,94629.81
2023-05-06T00:40:40.581Z,94635.25
2023-05-06T00:43:07.709Z,94646.59
2023-05-06T00:45:35.028Z,94636.91
2023-05-06T00:48:02.490Z,94607.84
2023-05-06T00:50:29.995Z,94631.94
2023-05-06T00:52:59.592Z,94630.94
2023-05-06T00:55:27.568Z,94633.94
2023-05-06T00:57:55.476Z,94631.38
2023-05-06T01:00:22.534Z,94632.44
2023-05-06T01:02:49.675Z,94620.63
2023-05-06T01:05:21.688Z,94638.22
2023-05-06T01:08:18.020Z,94645.50
2023-05-06T01:10:57.755Z,94638.75
2023-05-06T01:13:36.021Z,94643.81
2023-05-06T01:16:05.127Z,94642.19
2023-05-06T01:18:33.494Z,94640.00
2023-05-06T01:21:02.100Z,94651.88
2023-05-06T01:23:28.930Z,94651.06
2023-05-06T01:25:56.008Z,94625.13
2023-05-06T01:28:22.898Z,94649.09
2023-05-06T01:30:52.755Z,94647.91
2023-05-06T01:33:33.497Z,94639.22
2023-05-06T01:36:43.828Z,94663.25
2023-05-06T01:39:26.806Z,94652.88
2023-05-06T01:41:57.779Z,94626.94
2023-05-06T01:44:27.884Z,94642.50
2023-05-06T01:46:56.508Z,94650.22
2023-05-06T01:49:25.282Z,94618.56
2023-05-06T01:51:53.193Z,94644.47
2023-05-06T01:54:20.177Z,94640.03
2023-05-06T01:56:47.082Z,94638.59
2023-05-06T01:59:13.988Z,94636.56
2023-05-06T02:01:40.854Z,94640.84
2023-05-06T02:04:07.843Z,94645.13
2023-05-06T02:06:34.753Z,94642.31
2023-05-06T02:09:01.706Z,94635.75
2023-05-06T02:11:28.966Z,94623.66
2023-05-06T02:13:55.862Z,94639.06
2023-05-06T02:16:22.774Z,94627.75
2023-05-06T02:18:49.689Z,94617.47
2023-05-06T02:21:16.551Z,94641.94
2023-05-06T02:23:43.374Z,94625.88
2023-05-06T02:26:10.825Z,94630.03
2023-05-06T02:28:37.745Z,94631.84
2023-05-06T02:31:04.664Z,94616.63
2023-05-06T02:33:31.784Z,94640.16
2023-05-06T02:35:58.636Z,94637.81
2023-05-06T02:38:26.283Z,94628.78
2023-05-06T02:40:53.115Z,94628.31
2023-05-06T02:43:19.956Z,94617.09
2023-05-06T02:45:46.809Z,94626.41
2023-05-06T02:48:13.696Z,94603.00
2023-05-06T02:50:41.348Z,94627.28
2023-05-06T02:53:09.565Z,94605.03
2023-05-06T02:55:36.673Z,94610.91
2023-05-06T02:58:03.473Z,94621.75
2023-05-06T03:00:30.535Z,94630.72
2023-05-06T03:02:57.479Z,94619.97
2023-05-06T03:05:24.360Z,94619.91
2023-05-06T03:07:51.392Z,94607.63
2023-05-06T03:10:18.273Z,94622.56
2023-05-06T03:12:45.150Z,94622.06
2023-05-06T03:15:12.386Z,94617.44
2023-05-06T03:17:39.517Z,94608.53
2023-05-06T03:20:08.876Z,94617.88
2023-05-06T03:22:36.022Z,94618.03
2023-05-06T03:25:03.016Z,94604.13
2023-05-06T03:27:29.882Z,94604.22
2023-05-06T03:29:56.819Z,94600.94
2023-05-06T03:32:23.719Z,94600.13
2023-05-06T03:34:50.572Z,94600.59
2023-05-06T03:37:19.033Z,94612.13
2023-05-06T03:39:46.001Z,94606.09
2023-05-06T03:42:12.913Z,94591.16
2023-05-06T03:44:39.777Z,94602.78
2023-05-06T03:47:06.627Z,94606.97
2023-05-06T03:49:33.510Z,94619.28
2023-05-06T03:52:00.577Z,94622.88
2023-05-06T03:54:27.424Z,94620.25
2023-05-06T03:56:54.307Z,94624.88
2023-05-06T03:59:21.182Z,94603.69
2023-05-06T04:01:48.086Z,94626.88
2023-05-06T04:04:15.004Z,94620.91
2023-05-06T04:06:41.880Z,94627.34
2023-05-06T04:09:08.777Z,94637.75
2023-05-06T04:11:36.476Z,94628.25
2023-05-06T04:14:03.294Z,94624.78
2023-05-06T04:16:30.176Z,94630.59
2023-05-06T04:18:57.816Z,94638.19
2023-05-06T04:21:24.779Z,94645.75
2023-05-06T04:23:51.654Z,94634.91
2023-05-06T04:26:18.576Z,94624.06
2023-05-06T04:28:45.432Z,94637.25
2023-05-06T04:31:13.615Z,94624.75
2023-05-06T04:33:41.395Z,94638.41
2023-05-06T04:36:09.036Z,94629.34
2023-05-06T04:38:37.614Z,94642.19
2023-05-06T04:41:05.677Z,94634.47
2023-05-06T04:43:33.022Z,94645.66
2023-05-06T04:45:59.975Z,94638.91
2023-05-06T04:48:27.081Z,94648.44
2023-05-06T04:50:53.972Z,94614.28
2023-05-06T04:53:21.017Z,94654.03
2023-05-06T04:55:47.868Z,94652.06
2023-05-06T04:58:14.887Z,94653.69
2023-05-06T05:00:41.834Z,94655.16
2023-05-06T05:03:08.776Z,94649.25
2023-05-06T05:05:35.726Z,94650.41
2023-05-06T05:08:02.591Z,94656.31
2023-05-06T05:10:29.483Z,94669.16
2023-05-06T05:12:56.366Z,94661.44
2023-05-06T05:15:23.519Z,94654.38
2023-05-06T05:17:51.322Z,94676.03
2023-05-06T05:20:18.368Z,94664.88
2023-05-06T05:22:45.705Z,94671.13
2023-05-06T05:25:13.238Z,94660.94
2023-05-06T05:27:42.369Z,94671.75
2023-05-06T05:30:09.981Z,94653.84
2023-05-06T05:32:36.915Z,94663.84
2023-05-06T05:35:04.288Z,94662.00
2023-05-06T05:37:31.597Z,94645.72
2023-05-06T05:39:58.694Z,94678.69
2023-05-06T05:42:25.616Z,94674.56
2023-05-06T05:44:52.856Z,94676.50
2023-05-06T05:47:19.915Z,94679.09
2023-05-06T05:49:46.834Z,94672.31
2023-05-06T05:52:13.728Z,94678.38
2023-05-06T05:54:40.654Z,94665.75
2023-05-06T05:57:07.600Z,94683.47
2023-05-06T05:59:34.493Z,94659.97
2023-05-06T06:02:01.349Z,94652.56
2023-05-06T06:04:28.381Z,94650.09
2023-05-06T06:06:58.191Z,94660.94
2023-05-06T06:09:25.405Z,94675.88
2023-05-06T06:11:52.448Z,94683.59
2023-05-06T06:14:19.302Z,94672.50
2023-05-06T06:16:46.298Z,94675.72
2023-05-06T06:19:15.125Z,94677.03
2023-05-06T06:21:42.167Z,94670.59
2023-05-06T06:24:09.050Z,94666.75
2023-05-06T06:26:35.996Z,94660.06
2023-05-06T06:29:03.006Z,94651.38
2023-05-06T06:31:29.889Z,94651.00
2023-05-06T06:33:56.788Z,94668.03
2023-05-06T06:36:23.665Z,94662.38
2023-05-06T06:38:50.504Z,94640.91
2023-05-06T06:41:17.785Z,94673.47
2023-05-06T06:43:44.684Z,94645.22
2023-05-06T06:46:11.640Z,94664.50
2023-05-06T06:48:38.549Z,94680.50
2023-05-06T06:51:05.615Z,94679.78
2023-05-06T06:53:32.470Z,94673.78
2023-05-06T06:55:59.288Z,94675.69
2023-05-06T06:58:26.236Z,94675.38
2023-05-06T07:00:53.170Z,94658.16
2023-05-06T07:03:20.007Z,94676.47
2023-05-06T07:05:46.867Z,94684.13
2023-05-06T07:08:13.826Z,94681.28
2023-05-06T07:10:41.854Z,94686.41
2023-05-06T07:13:08.703Z,94695.50
2023-05-06T07:15:35.608Z,94691.03
2023-05-06T07:18:02.478Z,94688.22
2023-05-06T07:20:29.314Z,94690.13
2023-05-06T07:22:56.297Z,94691.75
2023-05-06T07:25:23.203Z,94698.72
2023-05-06T07:27:50.452Z,94687.66
2023-05-06T07:30:21.673Z,94697.69
2023-05-06T07:32:49.325Z,94683.72
2023-05-06T07:35:16.424Z,94694.47
2023-05-06T07:37:46.027Z,94707.91
2023-05-06T07:40:13.189Z,94696.59
2023-05-06T07:42:43.022Z,94696.16
2023-05-06T07:45:10.884Z,94699.25
2023-05-06T07:47:38.005Z,94692.41
2023-05-06T07:50:07.016Z,94705.22
2023-05-06T07:52:34.196Z,94707.06
2023-05-06T07:55:01.141Z,94709.91
2023-05-06T07:57:28.029Z,94699.63
2023-05-06T07:59:54.980Z,94709.75
2023-05-06T08:02:22.039Z,94709.25
2023-05-06T08:04:50.955Z,94694.56
2023-05-06T08:07:18.572Z,94695.81
2023-05-06T08:09:45.530Z,94714.22
2023-05-06T08:12:12.452Z,94690.38
2023-05-06T08:14:39.481Z,94714.19
2023-05-06T08:17:06.359Z,94711.81
2023-05-06T08:19:33.255Z,94697.94
2023-05-06T08:22:00.115Z,94709.38
2023-05-06T08:24:27.375Z,94713.03
2023-05-06T08:26:54.236Z,94716.91
2023-05-06T08:29:21.122Z,94713.91
2023-05-06T08:31:48.088Z,94696.53
2023-05-06T08:34:18.616Z,94697.16
2023-05-06T08:36:45.591Z,94686.09
2023-05-06T08:39:14.692Z,94708.50
2023-05-06T08:41:47.608Z,94683.84
2023-05-06T08:44:21.124Z,94695.97
2023-05-06T08:46:48.477Z,94706.03
2023-05-06T08:49:15.784Z,94696.84
2023-05-06T08:51:46.307Z,94680.53
2023-05-06T08:54:13.707Z,94685.28
2023-05-06T08:56:46.614Z,94695.72
2023-05-06T08:59:14.052Z,94696.50
2023-05-06T09:01:41.118Z,94686.25
2023-05-06T09:04:08.622Z,94686.63
2023-05-06T09:06:35.603Z,94706.53
2023-05-06T09:09:02.449Z,94700.19
2023-05-06T09:11:30.371Z,94688.47
2023-05-06T09:14:11.263Z,94691.09
2023-05-06T09:16:39.994Z,94685.00
2023-05-06T09:19:06.946Z,94678.63
2023-05-06T09:21:39.330Z,94686.72
2023-05-06T09:24:09.046Z,94685.19
2023-05-06T09:26:38.761Z,94691.03
2023-05-06T09:29:06.895Z,94689.91
2023-05-06T09:31:40.798Z,94691.03
2023-05-06T09:34:07.964Z,94692.63
2023-05-06T09:36:34.837Z,94689.44
2023-05-06T09:39:01.707Z,94667.09
2023-05-06T09:41:29.501Z,94684.19
2023-05-06T09:43:58.080Z,94681.59
2023-05-06T09:46:27.342Z,94681.97
2023-05-06T09:48:57.065Z,94682.03
2023-05-06T09:51:24.037Z,94683.94
2023-05-06T09:53:51.732Z,94667.31
2023-05-06T09:56:21.568Z,94659.69
2023-05-06T09:58:49.292Z,94670.22
2023-05-06T10:01:28.682Z,94668.13
2023-05-06T10:04:01.752Z,94667.72
2023-05-06T10:06:28.963Z,94665.16
2023-05-06T10:08:56.601Z,94657.75
2023-05-06T10:11:23.596Z,94660.00
2023-05-06T10:13:51.151Z,94658.66
2023-05-06T10:16:19.604Z,94654.50
2023-05-06T10:18:47.192Z,94634.28
2023-05-06T10:21:22.115Z,94651.22
2023-05-06T10:23:57.953Z,94649.84
2023-05-06T10:26:28.053Z,94646.78
2023-05-06T10:28:55.090Z,94637.31
2023-05-06T10:31:22.048Z,94638.34
2023-05-06T10:33:51.460Z,94623.44
2023-05-06T10:36:26.222Z,94630.41
2023-05-06T10:39:00.539Z,94624.50
2023-05-06T10:41:29.118Z,94619.47
2023-05-06T10:43:57.452Z,94623.81
2023-05-06T10:46:26.904Z,94621.19
2023-05-06T10:49:11.633Z,94611.06
2023-05-06T10:51:39.385Z,94607.06
2023-05-06T10:54:11.574Z,94617.03
2023-05-06T10:56:40.985Z,94578.41
2023-05-06T10:59:12.862Z,94574.44
2023-05-06T11:01:44.271Z,94605.72
2023-05-06T11:04:14.863Z,94588.34
2023-05-06T11:06:53.729Z,94586.19
2023-05-06T11:09:23.141Z,94587.28
2023-05-06T11:12:03.151Z,94586.16
2023-05-06T11:14:31.797Z,94583.56
2023-05-06T11:17:00.439Z,94581.97
2023-05-06T11:19:30.474Z,94584.88
2023-05-06T11:21:59.985Z,94585.69
2023-05-06T11:24:41.110Z,94587.31
2023-05-06T11:27:09.610Z,94572.53
2023-05-06T11:29:37.326Z,94570.72
2023-05-06T11:32:05.897Z,94570.53
2023-05-06T11:34:35.878Z,94572.84
2023-05-06T11:37:06.180Z,94549.22
2023-05-06T11:39:40.519Z,94578.72
2023-05-06T11:42:09.205Z,94567.66
2023-05-06T11:44:40.013Z,94576.75
2023-05-06T11:47:09.506Z,94575.06
2023-05-06T11:49:38.812Z,94577.16
2023-05-06T11:52:06.055Z,94556.13
2023-05-06T11:54:39.719Z,94594.41
2023-05-06T11:57:06.937Z,94574.44
2023-05-06T11:59:37.648Z,94589.69
2023-05-06T12:02:07.678Z,94587.44
2023-05-06T12:04:46.578Z,94586.50
2023-05-06T12:07:16.107Z,94592.50
2023-05-06T12:09:48.056Z,94588.06
2023-05-06T12:12:24.281Z,94581.97
2023-05-06T12:15:05.053Z,94584.19
2023-05-06T12:17:31.934Z,94579.53
2023-05-06T12:19:59.039Z,94577.25
2023-05-06T12:22:26.019Z,94574.34
2023-05-06T12:24:53.016Z,94581.31
2023-05-06T12:27:48.883Z,94578.34
2023-05-06T12:30:15.848Z,94572.38
2023-05-06T12:33:02.163Z,94570.41
2023-05-06T12:35:30.814Z,94576.84
2023-05-06T12:38:08.736Z,94570.25
2023-05-06T12:40:35.922Z,94566.69
2023-05-06T12:43:02.868Z,94576.59
2023-05-06T12:45:30.333Z,94561.00
2023-05-06T12:48:00.250Z,94557.59
2023-05-06T12:50:35.441Z,94563.84
2023-05-06T12:53:35.699Z,94569.41
2023-05-06T12:56:02.682Z,94564.38
2023-05-06T12:58:29.553Z,94548.00
2023-05-06T13:00:56.497Z,94554.66
2023-05-06T13:03:23.472Z,94557.50
2023-05-06T13:05:52.100Z,94568.56
2023-05-06T13:08:19.152Z,94557.63
2023-05-06T13:10:46.022Z,94551.78
2023-05-06T13:13:12.994Z,94561.28
2023-05-06T13:15:40.022Z,94550.50
2023-05-06T13:18:06.938Z,94559.28
2023-05-06T13:20:33.929Z,94552.94
2023-05-06T13:23:01.005Z,94559.38
2023-05-06T13:25:27.995Z,94549.03
2023-05-06T13:27:54.878Z,94555.91
2023-05-06T13:30:21.822Z,94545.16
2023-05-06T13:32:48.923Z,94549.38
2023-05-06T13:35:15.939Z,94548.81
2023-05-06T13:37:42.769Z,94540.56
2023-05-06T13:40:10.852Z,94544.91
2023-05-06T13:42:38.981Z,94551.09
2023-05-06T13:45:06.906Z,94541.81
2023-05-06T13:47:33.792Z,94520.22
2023-05-06T13:50:01.041Z,94518.34
2023-05-06T13:52:28.187Z,94542.38
2023-05-06T13:54:55.439Z,94530.88
2023-05-06T13:57:24.591Z,94521.28
2023-05-06T13:59:51.622Z,94543.44
2023-05-06T14:02:18.538Z,94543.06
2023-05-06T14:04:45.441Z,94540.88
2023-05-06T14:07:12.303Z,94523.22
2023-05-06T14:09:39.160Z,94524.59
2023-05-06T14:12:06.105Z,94507.16
2023-05-06T14:14:33.045Z,94521.06
2023-05-06T14:16:59.900Z,94515.72
2023-05-06T14:19:27.167Z,94513.53
2023-05-06T14:21:54.062Z,94520.81
2023-05-06T14:24:20.901Z,94501.56
2023-05-06T14:26:47.814Z,94518.00
2023-05-06T14:29:14.797Z,94491.16
2023-05-06T14:31:41.717Z,94512.22
2023-05-06T14:34:08.984Z,94498.38
2023-05-06T14:36:36.113Z,94480.72
2023-05-06T14:39:02.987Z,94481.72
2023-05-06T14:41:29.869Z,94489.69
2023-05-06T14:43:56.675Z,94491.19
2023-05-06T14:46:23.613Z,94481.16
2023-05-06T14:48:50.873Z,94503.28
2023-05-06T14:51:17.725Z,94492.66
2023-05-06T14:53:46.827Z,94488.81
2023-05-06T14:56:13.722Z,94489.38
2023-05-06T14:58:40.621Z,94457.66
2023-05-06T15:01:07.721Z,94479.53
2023-05-06T15:03:34.624Z,94475.44
2023-05-06T15:06:01.472Z,94487.81
2023-05-06T15:08:28.364Z,94477.66
2023-05-06T15:10:55.213Z,94483.84
2023-05-06T15:13:22.103Z,94484.44
2023-05-06T15:15:48.980Z,94477.19
2023-05-06T15:18:15.994Z,94470.47
2023-05-06T15:20:42.875Z,94462.72
2023-05-06T15:23:09.746Z,94465.19
2023-05-06T15:25:36.971Z,94459.25
2023-05-06T15:28:08.505Z,94466.22
2023-05-06T15:30:38.203Z,94473.91
2023-05-06T15:33:05.992Z,94470.06
2023-05-06T15:35:32.876Z,94460.41
2023-05-06T15:37:59.786Z,94456.78
2023-05-06T15:40:27.201Z,94468.06
2023-05-06T15:42:54.270Z,94473.16
2023-05-06T15:45:22.195Z,94477.38
2023-05-06T15:47:49.124Z,94466.69
2023-05-06T15:50:25.297Z,94470.00
2023-05-06T15:53:00.048Z,94467.22
2023-05-06T15:55:26.925Z,94475.13
2023-05-06T15:57:54.995Z,94470.38
2023-05-06T16:00:22.516Z,94482.00
2023-05-06T16:02:49.609Z,94462.56
2023-05-06T16:05:16.780Z,94464.59
2023-05-06T16:07:43.912Z,94474.53
2023-05-06T16:10:11.109Z,94468.91
2023-05-06T16:12:38.220Z,94477.19
2023-05-06T16:15:05.684Z,94482.31
2023-05-06T16:17:37.704Z,94460.59
2023-05-06T16:20:05.980Z,94464.09
2023-05-06T16:22:32.897Z,94462.16
2023-05-06T16:24:59.735Z,94474.53
2023-05-06T16:27:28.418Z,94472.88
2023-05-06T16:29:55.731Z,94456.53
2023-05-06T16:32:23.705Z,94470.41
2023-05-06T16:34:53.382Z,94470.06
2023-05-06T16:37:20.363Z,94474.13
2023-05-06T16:39:47.276Z,94470.88
2023-05-06T16:42:14.147Z,94480.75
2023-05-06T16:44:40.995Z,94466.94
2023-05-06T16:49:35.091Z,94464.78
2023-05-06T16:52:02.056Z,94452.75
2023-05-06T16:54:28.896Z,94468.94
2023-05-06T16:56:55.806Z,94457.78
2023-05-06T16:59:22.772Z,94447.38
2023-05-06T17:01:51.056Z,94453.84
2023-05-06T17:04:17.950Z,94433.16
2023-05-06T17:06:44.839Z,94453.91
2023-05-06T17:09:12.338Z,94455.41
2023-05-06T17:11:39.157Z,94452.28
2023-05-06T17:14:06.100Z,94430.69
2023-05-06T17:16:33.018Z,94435.16
2023-05-06T17:18:59.935Z,94431.09
2023-05-06T17:21:27.997Z,94431.00
2023-05-06T17:23:54.870Z,94425.66
2023-05-06T17:26:22.149Z,94430.78
2023-05-06T17:28:49.127Z,94409.69
2023-05-06T17:31:16.301Z,94416.03
2023-05-06T17:33:45.153Z,94426.16
2023-05-06T17:36:16.901Z,94426.00
2023-05-06T17:38:43.773Z,94423.88
2023-05-06T17:41:10.965Z,94425.09
2023-05-06T17:43:37.873Z,94419.91
2023-05-06T17:46:04.906Z,94420.88
2023-05-06T17:48:31.893Z,94430.09
2023-05-06T17:51:02.812Z,94433.41
2023-05-06T17:53:29.921Z,94424.84
2023-05-06T17:55:57.244Z,94445.00
2023-05-06T17:58:24.147Z,94422.38
2023-05-06T18:00:51.003Z,94410.22
2023-05-06T18:03:17.957Z,94439.47
2023-05-06T18:05:46.261Z,94417.63
2023-05-06T18:08:13.252Z,94456.47
2023-05-06T18:10:41.304Z,94419.38
2023-05-06T18:13:08.706Z,94433.31
2023-05-06T18:15:35.743Z,94446.09
2023-05-06T18:18:02.858Z,94458.97
2023-05-06T18:20:29.947Z,94447.41
2023-05-06T18:22:58.341Z,94426.50
2023-05-06T18:25:25.645Z,94438.94
2023-05-06T18:27:52.737Z,94433.94
2023-05-06T18:30:19.609Z,94473.41
2023-05-06T18:32:47.360Z,94435.09
2023-05-06T18:35:15.858Z,94445.78
2023-05-06T18:37:42.789Z,94454.13
2023-05-06T18:40:10.127Z,94470.25
2023-05-06T18:42:37.078Z,94461.59
2023-05-06T18:45:07.049Z,94467.59
2023-05-06T18:47:34.057Z,94485.22
2023-05-06T18:50:00.969Z,94487.63
2023-05-06T18:52:27.790Z,94489.09
2023-05-06T18:56:06.655Z,94500.09
2023-05-06T18:58:37.159Z,94499.75
2023-05-06T19:01:09.272Z,94508.66
2023-05-06T19:03:37.405Z,94512.59
2023-05-06T19:06:08.224Z,94511.13
2023-05-06T19:08:35.772Z,94509.97
2023-05-06T19:11:03.094Z,94507.13
2023-05-06T19:13:30.152Z,94510.09
2023-05-06T19:15:57.364Z,94508.59
2023-05-06T19:18:24.330Z,94509.47
2023-05-06T19:20:51.422Z,94519.75
2023-05-06T19:23:19.408Z,94518.97
2023-05-06T19:25:46.251Z,94519.84
2023-05-06T19:28:13.126Z,94519.16
2023-05-06T19:30:40.076Z,94513.69
2023-05-06T19:33:07.046Z,94511.88
2023-05-06T19:35:33.980Z,94508.25
2023-05-06T19:38:00.963Z,94534.84
2023-05-06T19:40:29.081Z,94527.38
2023-05-06T19:42:58.503Z,94528.19
2023-05-06T19:45:25.565Z,94528.69
2023-05-06T19:47:52.930Z,94520.41
2023-05-06T19:50:19.825Z,94521.91
2023-05-06T19:52:46.687Z,94497.25
2023-05-06T19:55:13.748Z,94526.91
2023-05-06T19:57:40.764Z,94520.78
2023-05-06T20:00:11.043Z,94521.41
2023-05-06T20:02:38.560Z,94530.81
2023-05-06T20:05:06.724Z,94525.50
2023-05-06T20:07:34.102Z,94517.97
2023-05-06T20:10:01.241Z,94520.44
2023-05-06T20:12:28.239Z,94506.41
2023-05-06T20:14:56.272Z,94497.03
2023-05-06T20:17:24.067Z,94497.03
2023-05-06T20:19:51.095Z,94498.28
2023-05-06T20:22:18.307Z,94496.63
2023-05-06T20:24:45.566Z,94478.31
2023-05-06T20:27:12.442Z,94489.13
2023-05-06T20:29:42.844Z,94486.91
2023-05-06T20:32:10.042Z,94510.38
2023-05-06T20:34:36.980Z,94517.69
2023-05-06T20:37:04.834Z,94469.53
2023-05-06T20:39:31.733Z,94493.41
2023-05-06T20:41:58.793Z,94461.16
2023-05-06T20:44:25.872Z,94463.19
2023-05-06T20:46:52.850Z,94462.78
2023-05-06T20:49:20.347Z,94464.81
2023-05-06T20:51:47.663Z,94476.19
2023-05-06T20:54:14.928Z,94518.22
2023-05-06T20:56:43.225Z,94464.31
2023-05-06T20:59:10.575Z,94483.88
2023-05-06T21:01:37.831Z,94477.53
2023-05-06T21:04:06.279Z,94461.84
2023-05-06T21:06:33.255Z,94496.47
2023-05-06T21:09:00.162Z,94475.88
2023-05-06T21:11:28.927Z,94484.38
2023-05-06T21:13:56.000Z,94497.03
2023-05-06T21:16:23.113Z,94519.91
2023-05-06T21:18:50.091Z,94487.38
2023-05-06T21:21:16.983Z,94484.47
2023-05-06T21:23:43.905Z,94474.44
2023-05-06T21:26:12.828Z,94515.09
2023-05-06T21:28:39.692Z,94458.22
2023-05-06T21:31:06.873Z,94466.31
2023-05-06T21:33:34.239Z,94461.19
2023-05-06T21:36:01.161Z,94481.03
2023-05-06T21:38:28.129Z,94481.38
2023-05-06T21:40:55.960Z,94492.81
2023-05-06T21:43:22.945Z,94492.38
2023-05-06T21:45:49.887Z,94489.47
2023-05-06T21:48:16.937Z,94509.84
2023-05-06T21:50:43.892Z,94519.66
2023-05-06T21:53:10.752Z,94478.53
2023-05-06T21:55:37.666Z,94515.25
2023-05-06T21:58:04.654Z,94491.69
2023-05-06T22:00:31.561Z,94509.53
2023-05-06T22:02:59.425Z,94509.97
2023-05-06T22:05:26.390Z,94499.47
2023-05-06T22:07:53.291Z,94496.69
2023-05-06T22:10:20.182Z,94512.78
2023-05-06T22:12:47.307Z,94506.44
2023-05-06T22:15:14.986Z,94486.66
2023-05-06T22:17:41.898Z,94504.13
2023-05-06T22:20:11.583Z,94515.16
2023-05-06T22:22:38.706Z,94500.63
2023-05-06T22:25:06.286Z,94498.22
2023-05-06T22:27:33.447Z,94461.88
2023-05-06T22:30:00.318Z,94481.25
2023-05-06T22:32:27.817Z,94479.41
2023-05-06T22:34:55.240Z,94468.81
2023-05-06T22:37:22.431Z,94480.63
2023-05-06T22:39:51.062Z,94479.75
2023-05-06T22:42:18.010Z,94449.44
2023-05-06T22:44:44.871Z,94484.97
2023-05-06T22:47:11.728Z,94447.72
2023-05-06T22:49:38.776Z,94474.47
2023-05-06T22:52:05.849Z,94450.88
2023-05-06T22:54:32.898Z,94477.59
2023-05-06T22:57:00.042Z,94476.56
2023-05-06T22:59:27.520Z,94485.34
2023-05-06T23:01:55.192Z,94494.81
2023-05-06T23:04:23.294Z,94442.13
2023-05-06T23:06:50.179Z,94472.28
2023-05-06T23:09:17.289Z,94472.06
2023-05-06T23:11:45.962Z,94508.50
2023-05-06T23:14:13.450Z,94475.78
2023-05-06T23:16:40.527Z,94461.06
2023-05-06T23:19:07.445Z,94452.63
2023-05-06T23:21:34.337Z,94453.44
2023-05-06T23:24:01.743Z,94489.25
2023-05-06T23:26:28.782Z,94461.88
2023-05-06T23:28:56.001Z,94484.69
2023-05-06T23:31:22.984Z,94457.34
2023-05-06T23:33:50.102Z,94454.91
2023-05-06T23:36:17.904Z,94450.94
2023-05-06T23:38:44.914Z,94477.75
2023-05-06T23:41:12.274Z,94478.31
2023-05-06T23:43:39.414Z,94487.66
2023-05-06T23:46:06.461Z,94435.59
2023-05-06T23:48:34.785Z,94472.59
2023-05-06T23:51:01.808Z,94466.41
2023-05-06T23:53:28.792Z,94444.06
2023-05-06T23:55:56.091Z,94442.22
2023-05-06T23:58:23.214Z,94440.88
